createdAt,value
2017-06-23T00:00:05.120Z,1013.19
2017-06-23T00:01:06.983Z,1013.16
2017-06-23T00:02:08.846Z,1013.06
2017-06-23T00:03:10.644Z,1012.88
2017-06-23T00:04:12.456Z,1012.75
2017-06-23T00:05:14.310Z,1012.72
2017-06-23T00:06:16.187Z,1012.82
2017-06-23T00:07:18.054Z,1012.90
2017-06-23T00:08:32.181Z,1012.95
2017-06-23T00:09:34.049Z,1012.88
2017-06-23T00:10:35.929Z,1012.81
2017-06-23T00:11:37.790Z,1012.78
2017-06-23T00:12:39.584Z,1012.73
2017-06-23T00:13:41.390Z,1012.61
2017-06-23T00:14:43.211Z,1012.57
2017-06-23T00:15:45.009Z,1012.52
2017-06-23T00:16:46.805Z,1012.45
2017-06-23T00:18:00.940Z,1012.47
2017-06-23T00:19:02.819Z,1012.43
2017-06-23T00:20:04.681Z,1012.41
2017-06-23T00:21:06.542Z,1012.37
2017-06-23T00:22:08.338Z,1012.33
2017-06-23T00:23:10.139Z,1012.34
2017-06-23T00:24:12.002Z,1012.37
2017-06-23T00:25:13.886Z,1012.34
2017-06-23T00:26:15.746Z,1012.32
2017-06-23T00:27:29.882Z,1012.25
2017-06-23T00:28:31.750Z,1012.19
2017-06-23T00:29:33.633Z,1012.04
2017-06-23T00:30:35.496Z,1011.94
2017-06-23T00:31:37.297Z,1011.94
2017-06-23T00:32:39.096Z,1012.04
2017-06-23T00:33:40.959Z,1012.11
2017-06-23T00:34:42.842Z,1012.07
2017-06-23T00:35:44.706Z,1011.99
2017-06-23T00:36:58.837Z,1011.91
2017-06-23T00:38:00.699Z,1011.86
2017-06-23T00:39:02.586Z,1011.86
2017-06-23T00:40:04.445Z,1011.88
2017-06-23T00:41:06.247Z,1011.98
2017-06-23T00:42:08.063Z,1012.03
2017-06-23T00:43:09.928Z,1012.07
2017-06-23T00:44:11.788Z,1012.04
2017-06-23T00:45:13.650Z,1012.00
2017-06-23T00:46:27.807Z,1011.92
2017-06-23T00:47:29.691Z,1011.86
2017-06-23T00:48:31.579Z,1011.81
2017-06-23T00:49:33.461Z,1011.69
2017-06-23T00:50:35.261Z,1011.54
2017-06-23T00:51:37.064Z,1011.42
2017-06-23T00:52:38.946Z,1011.34
2017-06-23T00:53:40.818Z,1011.31
2017-06-23T00:54:42.703Z,1011.31
2017-06-23T00:55:56.855Z,1011.25
2017-06-23T00:56:58.715Z,1011.25
2017-06-23T00:58:00.578Z,1011.34
2017-06-23T00:59:02.446Z,1011.43
2017-06-23T01:00:04.248Z,1011.59
2017-06-23T01:01:06.068Z,1011.78
2017-06-23T01:02:07.933Z,1011.97
2017-06-23T01:03:09.814Z,1012.02
2017-06-23T01:04:11.701Z,1011.85
2017-06-23T01:05:25.871Z,1011.28
2017-06-23T01:06:27.711Z,1010.89
2017-06-23T01:07:29.580Z,1010.89
2017-06-23T01:08:31.463Z,1010.94
2017-06-23T01:09:33.282Z,1010.80
2017-06-23T01:10:35.102Z,1010.56
2017-06-23T01:11:36.970Z,1010.43
2017-06-23T01:12:38.851Z,1010.33
2017-06-23T01:13:40.717Z,1010.45
2017-06-23T01:14:54.873Z,1010.63
2017-06-23T01:15:56.757Z,1010.64
2017-06-23T01:16:58.640Z,1010.72
2017-06-23T01:18:00.506Z,1010.85
2017-06-23T01:19:02.328Z,1010.94
2017-06-23T01:20:04.128Z,1010.99
2017-06-23T01:21:05.991Z,1011.01
2017-06-23T01:22:07.872Z,1011.04
2017-06-23T01:23:09.758Z,1011.03
2017-06-23T01:24:23.938Z,1011.07
2017-06-23T01:25:25.804Z,1011.11
2017-06-23T01:26:27.686Z,1011.17
2017-06-23T01:27:29.548Z,1011.17
2017-06-23T01:28:31.351Z,1011.17
2017-06-23T01:29:33.152Z,1011.18
2017-06-23T01:30:35.012Z,1011.12
2017-06-23T01:31:36.877Z,1010.99
2017-06-23T01:32:38.741Z,1010.93
2017-06-23T01:33:52.873Z,1010.84
2017-06-23T01:34:54.759Z,1010.80
2017-06-23T01:35:56.646Z,1010.72
2017-06-23T01:36:58.510Z,1010.67
2017-06-23T01:38:00.333Z,1010.59
2017-06-23T01:39:02.136Z,1010.55
2017-06-23T01:40:04.017Z,1010.52
2017-06-23T01:41:05.881Z,1010.50
2017-06-23T01:42:07.747Z,1010.48
2017-06-23T01:43:21.861Z,1010.52
2017-06-23T01:44:23.678Z,1010.60
2017-06-23T01:45:25.480Z,1010.58
2017-06-23T01:46:27.302Z,1010.56
2017-06-23T01:47:29.133Z,1010.52
2017-06-23T01:48:31.011Z,1010.51
2017-06-23T01:49:32.877Z,1010.51
2017-06-23T01:50:34.694Z,1010.52
2017-06-23T01:51:36.512Z,1010.48
2017-06-23T01:52:50.642Z,1010.39
2017-06-23T01:53:52.510Z,1010.43
2017-06-23T01:54:54.391Z,1010.40
2017-06-23T01:55:56.256Z,1010.42
2017-06-23T01:56:58.077Z,1010.34
2017-06-23T01:57:59.900Z,1010.32
2017-06-23T01:59:01.780Z,1010.34
2017-06-23T02:00:03.645Z,1010.39
2017-06-23T02:01:05.511Z,1010.32
2017-06-23T02:02:19.662Z,1010.29
2017-06-23T02:03:21.548Z,1010.26
2017-06-23T02:04:23.432Z,1010.21
2017-06-23T02:05:25.299Z,1010.16
2017-06-23T02:06:27.101Z,1010.18
2017-06-23T02:07:28.921Z,1010.17
2017-06-23T02:08:30.786Z,1010.10
2017-06-23T02:09:32.606Z,1010.10
2017-06-23T02:10:34.406Z,1010.11
2017-06-23T02:11:48.540Z,1010.03
2017-06-23T02:12:50.423Z,1010.05
2017-06-23T02:13:52.305Z,1010.03
2017-06-23T02:14:54.172Z,1010.04
2017-06-23T02:15:56.000Z,1009.97
2017-06-23T02:16:57.813Z,1009.97
2017-06-23T02:17:59.684Z,1009.96
2017-06-23T02:19:01.572Z,1009.86
2017-06-23T02:20:03.437Z,1009.80
2017-06-23T02:21:17.590Z,1009.85
2017-06-23T02:22:19.453Z,1009.88
2017-06-23T02:23:21.323Z,1009.83
2017-06-23T02:24:23.192Z,1009.84
2017-06-23T02:25:25.019Z,1009.78
2017-06-23T02:26:26.835Z,1009.81
2017-06-23T02:27:28.702Z,1009.85
2017-06-23T02:28:30.567Z,1009.92
2017-06-23T02:29:32.435Z,1009.84
2017-06-23T02:30:46.566Z,1009.84
2017-06-23T02:31:48.426Z,1009.86
2017-06-23T02:32:50.293Z,1009.89
2017-06-23T02:33:52.159Z,1009.91
2017-06-23T02:34:53.963Z,1009.96
2017-06-23T02:35:55.765Z,1010.04
2017-06-23T02:36:57.656Z,1009.95
2017-06-23T02:37:59.544Z,1009.99
2017-06-23T02:39:01.425Z,1010.11
2017-06-23T02:40:15.561Z,1010.22
2017-06-23T02:41:17.615Z,1010.18
2017-06-23T02:42:19.519Z,1010.16
2017-06-23T02:43:21.388Z,1010.23
2017-06-23T02:44:23.192Z,1010.31
2017-06-23T02:45:25.016Z,1010.36
2017-06-23T02:46:26.883Z,1010.23
2017-06-23T02:47:28.771Z,1010.32
2017-06-23T02:48:30.659Z,1010.31
2017-06-23T02:49:44.791Z,1010.24
2017-06-23T02:50:46.661Z,1010.24
2017-06-23T02:51:48.551Z,1010.24
2017-06-23T02:52:50.421Z,1010.15
2017-06-23T02:53:52.249Z,1010.13
2017-06-23T02:54:54.071Z,1010.07
2017-06-23T02:55:55.938Z,1010.04
2017-06-23T02:56:57.805Z,1009.94
2017-06-23T02:57:59.686Z,1009.91
2017-06-23T02:59:13.816Z,1009.88
2017-06-23T03:00:15.679Z,1009.89
2017-06-23T03:01:17.560Z,1009.94
2017-06-23T03:02:19.420Z,1009.95
2017-06-23T03:03:21.225Z,1009.93
2017-06-23T03:04:23.032Z,1009.93
2017-06-23T03:05:24.915Z,1009.95
2017-06-23T03:06:26.781Z,1009.93
2017-06-23T03:07:28.648Z,1009.99
2017-06-23T03:08:42.786Z,1009.97
2017-06-23T03:09:44.654Z,1009.96
2017-06-23T03:10:46.544Z,1009.98
2017-06-23T03:11:48.423Z,1010.02
2017-06-23T03:12:50.235Z,1010.09
2017-06-23T03:13:52.055Z,1010.03
2017-06-23T03:14:53.921Z,1010.07
2017-06-23T03:15:55.792Z,1010.09
2017-06-23T03:16:57.654Z,1010.03
2017-06-23T03:18:11.792Z,1010.01
2017-06-23T03:19:13.654Z,1009.96
2017-06-23T03:20:15.530Z,1009.90
2017-06-23T03:21:17.387Z,1009.93
2017-06-23T03:22:19.194Z,1009.97
2017-06-23T03:23:21.024Z,1010.01
2017-06-23T03:24:22.896Z,1010.10
2017-06-23T03:25:24.777Z,1010.20
2017-06-23T03:26:26.647Z,1010.10
2017-06-23T03:27:40.777Z,1010.23
2017-06-23T03:28:42.644Z,1010.32
2017-06-23T03:29:44.512Z,1010.41
2017-06-23T03:30:46.399Z,1010.41
2017-06-23T03:31:48.204Z,1010.46
2017-06-23T03:32:50.025Z,1010.53
2017-06-23T03:33:51.896Z,1010.59
2017-06-23T03:34:53.786Z,1010.67
2017-06-23T03:35:55.676Z,1010.67
2017-06-23T03:37:09.830Z,1010.70
2017-06-23T03:38:11.694Z,1010.72
2017-06-23T03:39:13.561Z,1010.79
2017-06-23T03:40:15.431Z,1010.85
2017-06-23T03:41:17.236Z,1010.84
2017-06-23T03:42:19.058Z,1010.85
2017-06-23T03:43:20.947Z,1010.85
2017-06-23T03:44:22.816Z,1010.83
2017-06-23T03:45:24.708Z,1010.83
2017-06-23T03:46:38.866Z,1010.97
2017-06-23T03:47:40.754Z,1011.00
2017-06-23T03:48:42.622Z,1010.99
2017-06-23T03:49:44.493Z,1010.96
2017-06-23T03:50:46.320Z,1011.01
2017-06-23T03:51:48.123Z,1011.04
2017-06-23T03:52:49.994Z,1011.01
2017-06-23T03:53:51.875Z,1011.06
2017-06-23T03:54:53.763Z,1011.04
2017-06-23T03:56:07.903Z,1011.05
2017-06-23T03:57:09.788Z,1011.11
2017-06-23T03:58:11.680Z,1011.04
2017-06-23T03:59:13.544Z,1011.07
2017-06-23T04:00:15.351Z,1011.04
2017-06-23T04:01:17.177Z,1011.10
2017-06-23T04:02:19.069Z,1011.11
2017-06-23T04:03:20.961Z,1011.07
2017-06-23T04:04:22.855Z,1010.95
2017-06-23T04:05:37.008Z,1011.01
2017-06-23T04:06:38.884Z,1011.05
2017-06-23T04:07:40.766Z,1011.06
2017-06-23T04:08:42.637Z,1011.13
2017-06-23T04:09:44.467Z,1011.14
2017-06-23T04:10:46.295Z,1011.14
2017-06-23T04:11:48.162Z,1011.20
2017-06-23T04:12:50.037Z,1011.26
2017-06-23T04:13:51.909Z,1011.24
2017-06-23T04:15:06.067Z,1011.27
2017-06-23T04:16:07.937Z,1011.28
2017-06-23T04:17:09.807Z,1011.28
2017-06-23T04:18:11.694Z,1011.35
2017-06-23T04:19:13.505Z,1011.38
2017-06-23T04:20:15.312Z,1011.35
2017-06-23T04:21:17.203Z,1011.36
2017-06-23T04:22:19.077Z,1011.44
2017-06-23T04:23:20.972Z,1011.44
2017-06-23T04:24:35.129Z,1011.52
2017-06-23T04:25:36.999Z,1011.46
2017-06-23T04:26:38.889Z,1011.49
2017-06-23T04:27:40.753Z,1011.41
2017-06-23T04:28:42.565Z,1011.41
2017-06-23T04:29:44.398Z,1011.33
2017-06-23T04:30:46.286Z,1011.34
2017-06-23T04:31:48.180Z,1011.34
2017-06-23T04:32:50.059Z,1011.38
2017-06-23T04:34:04.208Z,1011.48
2017-06-23T04:35:06.078Z,1011.50
2017-06-23T04:36:07.966Z,1011.49
2017-06-23T04:37:09.835Z,1011.40
2017-06-23T04:38:11.672Z,1011.44
2017-06-23T04:39:13.491Z,1011.49
2017-06-23T04:40:15.367Z,1011.55
2017-06-23T04:41:17.260Z,1011.55
2017-06-23T04:42:19.133Z,1011.63
2017-06-23T04:43:33.274Z,1011.66
2017-06-23T04:44:35.159Z,1011.80
2017-06-23T04:45:37.030Z,1011.70
2017-06-23T04:46:38.902Z,1011.63
2017-06-23T04:47:40.740Z,1011.66
2017-06-23T04:48:42.563Z,1011.61
2017-06-23T04:49:44.439Z,1011.51
2017-06-23T04:50:46.288Z,1011.52
2017-06-23T04:51:48.106Z,1011.61
2017-06-23T04:53:02.263Z,1011.66
2017-06-23T04:54:04.153Z,1011.84
2017-06-23T04:55:06.055Z,1011.78
2017-06-23T04:56:07.947Z,1011.69
2017-06-23T04:57:09.778Z,1011.55
2017-06-23T04:58:11.583Z,1011.62
2017-06-23T04:59:13.454Z,1011.67
2017-06-23T05:00:15.327Z,1011.49
2017-06-23T05:01:17.207Z,1011.45
2017-06-23T05:02:31.362Z,1011.48
2017-06-23T05:03:33.235Z,1011.39
2017-06-23T05:04:35.129Z,1011.35
2017-06-23T05:05:37.018Z,1011.47
2017-06-23T05:06:38.830Z,1011.54
2017-06-23T05:07:40.666Z,1011.49
2017-06-23T05:08:42.555Z,1011.48
2017-06-23T05:09:44.448Z,1011.59
2017-06-23T05:10:46.346Z,1011.63
2017-06-23T05:12:00.507Z,1011.67
2017-06-23T05:13:02.395Z,1011.55
2017-06-23T05:14:04.286Z,1011.56
2017-06-23T05:15:06.157Z,1011.60
2017-06-23T05:16:07.986Z,1011.74
2017-06-23T05:17:09.812Z,1011.64
2017-06-23T05:18:11.703Z,1011.67
2017-06-23T05:19:13.575Z,1011.75
2017-06-23T05:20:15.443Z,1011.78
2017-06-23T05:21:29.581Z,1011.85
2017-06-23T05:22:31.448Z,1011.89
2017-06-23T05:23:33.315Z,1011.94
2017-06-23T05:24:35.193Z,1011.92
2017-06-23T05:25:37.018Z,1011.95
2017-06-23T05:26:38.843Z,1012.00
2017-06-23T05:27:40.734Z,1011.90
2017-06-23T05:28:42.623Z,1011.88
2017-06-23T05:29:44.497Z,1011.88
2017-06-23T05:30:58.656Z,1011.90
2017-06-23T05:32:00.541Z,1011.92
2017-06-23T05:33:02.411Z,1011.91
2017-06-23T05:34:04.284Z,1011.88
2017-06-23T05:35:06.109Z,1012.01
2017-06-23T05:36:07.916Z,1012.05
2017-06-23T05:37:09.789Z,1012.09
2017-06-23T05:38:11.663Z,1012.11
2017-06-23T05:39:13.549Z,1012.08
2017-06-23T05:40:27.684Z,1012.17
2017-06-23T05:41:29.574Z,1012.16
2017-06-23T05:42:31.467Z,1012.21
2017-06-23T05:43:33.335Z,1012.30
2017-06-23T05:44:35.162Z,1012.38
2017-06-23T05:45:36.986Z,1012.31
2017-06-23T05:46:38.879Z,1012.24
2017-06-23T05:47:40.745Z,1012.29
2017-06-23T05:48:42.621Z,1012.39
2017-06-23T05:49:56.776Z,1012.38
2017-06-23T05:50:58.648Z,1012.37
2017-06-23T05:52:00.539Z,1012.47
2017-06-23T05:53:02.430Z,1012.42
2017-06-23T05:54:04.260Z,1012.44
2017-06-23T05:55:06.087Z,1012.54
2017-06-23T05:56:07.984Z,1012.57
2017-06-23T05:57:09.871Z,1012.65
2017-06-23T05:58:11.751Z,1012.74
2017-06-23T05:59:25.891Z,1012.66
2017-06-23T06:00:27.779Z,1012.74
2017-06-23T06:01:29.669Z,1012.71
2017-06-23T06:02:31.559Z,1012.76
2017-06-23T06:03:33.371Z,1012.67
2017-06-23T06:04:35.175Z,1012.60
2017-06-23T06:05:37.053Z,1012.43
2017-06-23T06:06:38.904Z,1012.47
2017-06-23T06:07:40.731Z,1012.67
2017-06-23T06:08:54.920Z,1012.68
2017-06-23T06:09:56.790Z,1012.66
2017-06-23T06:10:58.690Z,1012.65
2017-06-23T06:12:00.555Z,1012.71
2017-06-23T06:13:02.366Z,1012.65
2017-06-23T06:14:04.196Z,1012.68
2017-06-23T06:15:06.112Z,1012.70
2017-06-23T06:16:07.982Z,1012.57
2017-06-23T06:17:09.879Z,1012.52
2017-06-23T06:18:24.032Z,1012.37
2017-06-23T06:19:25.902Z,1012.37
2017-06-23T06:20:27.797Z,1012.37
2017-06-23T06:21:29.686Z,1012.31
2017-06-23T06:22:31.515Z,1012.35
2017-06-23T06:23:33.341Z,1012.25
2017-06-23T06:24:35.213Z,1012.24
2017-06-23T06:25:37.106Z,1012.29
2017-06-23T06:26:38.975Z,1012.31
2017-06-23T06:27:53.120Z,1012.29
2017-06-23T06:28:55.002Z,1012.40
2017-06-23T06:29:56.871Z,1012.43
2017-06-23T06:30:58.743Z,1012.37
2017-06-23T06:32:00.577Z,1012.33
2017-06-23T06:33:02.403Z,1012.38
2017-06-23T06:34:04.271Z,1012.44
2017-06-23T06:35:06.147Z,1012.47
2017-06-23T06:36:08.002Z,1012.51
2017-06-23T06:37:22.165Z,1012.49
2017-06-23T06:38:24.051Z,1012.45
2017-06-23T06:39:25.938Z,1012.46
2017-06-23T06:40:27.810Z,1012.45
2017-06-23T06:41:29.642Z,1012.36
2017-06-23T06:42:31.467Z,1012.46
2017-06-23T06:43:33.334Z,1012.49
2017-06-23T06:44:35.208Z,1012.52
2017-06-23T06:45:37.073Z,1012.52
2017-06-23T06:46:51.212Z,1012.52
2017-06-23T06:47:53.086Z,1012.53
2017-06-23T06:48:54.977Z,1012.56
2017-06-23T06:49:56.869Z,1012.58
2017-06-23T06:50:58.691Z,1012.53
2017-06-23T06:52:00.491Z,1012.55
2017-06-23T06:53:02.370Z,1012.66
2017-06-23T06:54:04.241Z,1012.64
2017-06-23T06:55:06.108Z,1012.56
2017-06-23T06:56:20.246Z,1012.57
2017-06-23T06:57:22.132Z,1012.56
2017-06-23T06:58:24.005Z,1012.67
2017-06-23T06:59:25.894Z,1012.65
2017-06-23T07:00:27.694Z,1012.63
2017-06-23T07:01:29.499Z,1012.73
2017-06-23T07:02:31.366Z,1012.65
2017-06-23T07:03:33.237Z,1012.73
2017-06-23T07:04:35.131Z,1012.68
2017-06-23T07:05:49.291Z,1012.66
2017-06-23T07:06:51.159Z,1012.68
2017-06-23T07:07:53.052Z,1012.69
2017-06-23T07:08:54.941Z,1012.68
2017-06-23T07:09:56.747Z,1012.73
2017-06-23T07:10:58.572Z,1012.74
2017-06-23T07:12:00.442Z,1012.72
2017-06-23T07:13:02.317Z,1012.73
2017-06-23T07:14:04.208Z,1012.73
2017-06-23T07:15:18.345Z,1012.76
2017-06-23T07:16:20.212Z,1012.72
2017-06-23T07:17:22.079Z,1012.79
2017-06-23T07:18:23.951Z,1012.79
2017-06-23T07:19:25.777Z,1012.94
2017-06-23T07:20:27.583Z,1012.91
2017-06-23T07:21:29.452Z,1012.97
2017-06-23T07:22:31.323Z,1013.03
2017-06-23T07:23:33.198Z,1012.94
2017-06-23T07:24:47.358Z,1013.04
2017-06-23T07:25:49.242Z,1013.11
2017-06-23T07:26:51.117Z,1013.02
2017-06-23T07:27:53.005Z,1013.05
2017-06-23T07:28:54.810Z,1013.08
2017-06-23T07:29:56.621Z,1012.99
2017-06-23T07:30:58.513Z,1013.05
2017-06-23T07:32:00.404Z,1013.08
2017-06-23T07:33:02.273Z,1013.07
2017-06-23T07:34:16.412Z,1013.05
2017-06-23T07:35:18.280Z,1013.14
2017-06-23T07:36:20.174Z,1013.13
2017-06-23T07:37:22.061Z,1013.18
2017-06-23T07:38:23.866Z,1013.18
2017-06-23T07:39:25.671Z,1013.21
2017-06-23T07:40:27.542Z,1013.34
2017-06-23T07:41:29.410Z,1013.27
2017-06-23T07:42:31.283Z,1013.21
2017-06-23T07:43:45.463Z,1013.23
2017-06-23T07:44:47.332Z,1013.26
2017-06-23T07:45:49.211Z,1013.22
2017-06-23T07:46:51.099Z,1013.20
2017-06-23T07:47:52.911Z,1013.12
2017-06-23T07:48:54.739Z,1013.24
2017-06-23T07:49:56.623Z,1013.29
2017-06-23T07:50:58.496Z,1013.29
2017-06-23T07:52:00.389Z,1013.33
2017-06-23T07:53:14.547Z,1013.39
2017-06-23T07:54:16.436Z,1013.38
2017-06-23T07:55:18.330Z,1013.39
2017-06-23T07:56:20.197Z,1013.36
2017-06-23T07:57:22.006Z,1013.40
2017-06-23T07:58:23.840Z,1013.47
2017-06-23T07:59:25.727Z,1013.44
2017-06-23T08:00:27.623Z,1013.50
2017-06-23T08:01:29.515Z,1013.65
2017-06-23T08:02:43.670Z,1013.60
2017-06-23T08:03:45.543Z,1013.55
2017-06-23T08:04:47.435Z,1013.63
2017-06-23T08:05:49.302Z,1013.75
2017-06-23T08:06:51.117Z,1013.78
2017-06-23T08:07:52.937Z,1014.09
2017-06-23T08:08:54.814Z,1013.83
2017-06-23T08:09:56.711Z,1013.62
2017-06-23T08:10:58.604Z,1013.52
2017-06-23T08:12:12.765Z,1013.50
2017-06-23T08:13:14.627Z,1013.55
2017-06-23T08:14:16.504Z,1013.55
2017-06-23T08:15:18.392Z,1013.55
2017-06-23T08:16:20.197Z,1013.72
2017-06-23T08:17:22.004Z,1013.71
2017-06-23T08:18:23.899Z,1013.86
2017-06-23T08:19:25.770Z,1013.91
2017-06-23T08:20:27.661Z,1013.86
2017-06-23T08:21:41.797Z,1013.85
2017-06-23T08:22:43.688Z,1013.98
2017-06-23T08:23:45.579Z,1013.97
2017-06-23T08:24:47.442Z,1014.22
2017-06-23T08:25:49.260Z,1014.53
2017-06-23T08:26:51.082Z,1014.60
2017-06-23T08:27:52.984Z,1014.64
2017-06-23T08:28:54.859Z,1014.53
2017-06-23T08:29:56.734Z,1014.39
2017-06-23T08:31:10.872Z,1014.30
2017-06-23T08:32:12.763Z,1014.42
2017-06-23T08:33:14.657Z,1014.43
2017-06-23T08:34:16.530Z,1014.55
2017-06-23T08:35:18.354Z,1014.58
2017-06-23T08:36:20.164Z,1014.59
2017-06-23T08:37:22.042Z,1014.50
2017-06-23T08:38:23.939Z,1014.34
2017-06-23T08:39:25.833Z,1014.21
2017-06-23T08:40:39.997Z,1014.14
2017-06-23T08:41:41.866Z,1014.18
2017-06-23T08:42:43.754Z,1014.12
2017-06-23T08:43:45.642Z,1014.06
2017-06-23T08:44:47.454Z,1014.05
2017-06-23T08:45:49.277Z,1014.12
2017-06-23T08:46:51.154Z,1014.16
2017-06-23T08:47:53.024Z,1014.13
2017-06-23T08:48:54.904Z,1014.14
2017-06-23T08:50:09.065Z,1014.23
2017-06-23T08:51:10.955Z,1014.33
2017-06-23T08:52:12.844Z,1014.32
2017-06-23T08:53:14.714Z,1014.45
2017-06-23T08:54:16.545Z,1014.57
2017-06-23T08:55:18.374Z,1014.61
2017-06-23T08:56:20.266Z,1014.70
2017-06-23T08:57:22.138Z,1014.58
2017-06-23T08:58:24.012Z,1014.60
2017-06-23T08:59:38.174Z,1014.70
2017-06-23T09:00:40.048Z,1014.70
2017-06-23T09:01:41.937Z,1014.66
2017-06-23T09:02:43.833Z,1014.54
2017-06-23T09:03:45.663Z,1014.55
2017-06-23T09:04:47.495Z,1014.56
2017-06-23T09:05:49.389Z,1014.55
2017-06-23T09:06:51.261Z,1014.58
2017-06-23T09:07:53.157Z,1014.51
2017-06-23T09:09:07.373Z,1014.52
2017-06-23T09:10:09.261Z,1014.68
2017-06-23T09:11:11.137Z,1014.68
2017-06-23T09:12:13.008Z,1014.67
2017-06-23T09:13:14.818Z,1014.62
2017-06-23T09:14:16.643Z,1014.66
2017-06-23T09:15:18.521Z,1014.59
2017-06-23T09:16:20.414Z,1014.64
2017-06-23T09:17:22.288Z,1014.50
2017-06-23T09:18:36.443Z,1014.42
2017-06-23T09:19:38.315Z,1014.46
2017-06-23T09:20:40.184Z,1014.51
2017-06-23T09:21:42.055Z,1014.56
2017-06-23T09:22:43.863Z,1014.51
2017-06-23T09:23:45.688Z,1014.56
2017-06-23T09:24:47.559Z,1014.47
2017-06-23T09:25:49.432Z,1014.45
2017-06-23T09:26:51.309Z,1014.45
2017-06-23T09:28:05.442Z,1014.44
2017-06-23T09:29:07.315Z,1014.47
2017-06-23T09:30:09.203Z,1014.39
2017-06-23T09:31:11.077Z,1014.45
2017-06-23T09:32:12.882Z,1014.45
2017-06-23T09:33:14.687Z,1014.47
2017-06-23T09:34:16.558Z,1014.47
2017-06-23T09:35:18.431Z,1014.53
2017-06-23T09:36:20.310Z,1014.70
2017-06-23T09:37:34.445Z,1014.85
2017-06-23T09:38:36.317Z,1014.75
2017-06-23T09:39:38.204Z,1014.78
2017-06-23T09:40:40.074Z,1014.69
2017-06-23T09:41:41.905Z,1014.81
2017-06-23T09:42:43.736Z,1014.74
2017-06-23T09:43:45.610Z,1014.72
2017-06-23T09:44:47.504Z,1014.71
2017-06-23T09:45:49.399Z,1014.78
2017-06-23T09:47:03.531Z,1014.84
2017-06-23T09:48:05.393Z,1014.84
2017-06-23T09:49:07.269Z,1014.73
2017-06-23T09:50:09.158Z,1014.73
2017-06-23T09:51:10.970Z,1014.63
2017-06-23T09:52:12.816Z,1014.59
2017-06-23T09:53:14.684Z,1014.59
2017-06-23T09:54:16.575Z,1014.63
2017-06-23T09:55:18.448Z,1014.71
2017-06-23T09:56:32.586Z,1014.70
2017-06-23T09:57:34.458Z,1014.72
2017-06-23T09:58:36.353Z,1014.69
2017-06-23T09:59:38.264Z,1014.63
2017-06-23T10:00:40.073Z,1014.62
2017-06-23T10:01:41.883Z,1014.58
2017-06-23T10:02:43.777Z,1014.61
2017-06-23T10:03:45.670Z,1014.70
2017-06-23T10:04:47.541Z,1014.76
2017-06-23T10:06:01.870Z,1014.80
2017-06-23T10:07:03.731Z,1014.82
2017-06-23T10:08:05.606Z,1014.84
2017-06-23T10:09:07.498Z,1014.88
2017-06-23T10:10:09.327Z,1014.91
2017-06-23T10:11:11.158Z,1014.81
2017-06-23T10:12:13.050Z,1014.94
2017-06-23T10:13:14.925Z,1015.06
2017-06-23T10:14:16.816Z,1015.01
2017-06-23T10:15:30.971Z,1014.96
2017-06-23T10:16:32.937Z,1014.99
2017-06-23T10:17:34.826Z,1014.88
2017-06-23T10:18:36.705Z,1014.82
2017-06-23T10:19:38.614Z,1014.76
2017-06-23T10:20:40.435Z,1014.76
2017-06-23T10:21:42.311Z,1014.74
2017-06-23T10:22:44.206Z,1014.75
2017-06-23T10:23:46.101Z,1014.72
2017-06-23T10:25:00.263Z,1014.68
2017-06-23T10:26:02.151Z,1014.67
2017-06-23T10:27:04.022Z,1014.60
2017-06-23T10:28:05.908Z,1014.66
2017-06-23T10:29:07.720Z,1014.62
2017-06-23T10:30:09.548Z,1014.69
2017-06-23T10:31:11.450Z,1014.71
2017-06-23T10:32:13.341Z,1014.77
2017-06-23T10:33:15.215Z,1014.75
2017-06-23T10:34:29.373Z,1014.76
2017-06-23T10:35:31.309Z,1014.80
2017-06-23T10:36:33.185Z,1014.84
2017-06-23T10:37:35.077Z,1014.85
2017-06-23T10:38:36.912Z,1014.88
2017-06-23T10:39:38.716Z,1015.06
2017-06-23T10:40:40.609Z,1015.22
2017-06-23T10:41:42.488Z,1015.47
2017-06-23T10:42:44.357Z,1015.48
2017-06-23T10:43:58.512Z,1015.52
2017-06-23T10:45:00.384Z,1015.54
2017-06-23T10:46:02.279Z,1015.54
2017-06-23T10:47:04.169Z,1015.58
2017-06-23T10:48:05.983Z,1015.60
2017-06-23T10:49:07.794Z,1015.65
2017-06-23T10:50:09.689Z,1015.49
2017-06-23T10:51:11.580Z,1015.45
2017-06-23T10:52:13.462Z,1015.47
2017-06-23T10:53:27.626Z,1015.36
2017-06-23T10:54:29.524Z,1015.38
2017-06-23T10:55:31.414Z,1015.43
2017-06-23T10:56:33.305Z,1015.47
2017-06-23T10:57:35.114Z,1015.46
2017-06-23T10:58:36.928Z,1015.37
2017-06-23T10:59:38.860Z,1015.50
2017-06-23T11:00:40.737Z,1015.34
2017-06-23T11:01:42.629Z,1015.37
2017-06-23T11:02:56.768Z,1015.27
2017-06-23T11:03:58.646Z,1015.38
2017-06-23T11:05:00.541Z,1015.25
2017-06-23T11:06:02.431Z,1015.14
2017-06-23T11:07:04.245Z,1015.30
2017-06-23T11:08:06.078Z,1015.30
2017-06-23T11:09:07.975Z,1015.25
2017-06-23T11:10:09.869Z,1014.88
2017-06-23T11:11:11.748Z,1014.96
2017-06-23T11:12:25.891Z,1015.32
2017-06-23T11:13:27.766Z,1015.30
2017-06-23T11:14:29.636Z,1015.32
2017-06-23T11:15:31.531Z,1015.15
2017-06-23T11:16:33.362Z,1015.12
2017-06-23T11:17:35.175Z,1015.12
2017-06-23T11:18:37.069Z,1015.08
2017-06-23T11:19:38.944Z,1015.06
2017-06-23T11:20:40.826Z,1015.11
2017-06-23T11:21:54.962Z,1015.08
2017-06-23T11:22:56.853Z,1015.10
2017-06-23T11:23:58.752Z,1015.09
2017-06-23T11:25:00.645Z,1015.23
2017-06-23T11:26:02.482Z,1015.25
2017-06-23T11:27:04.291Z,1015.41
2017-06-23T11:28:06.183Z,1015.43
2017-06-23T11:29:08.082Z,1015.36
2017-06-23T11:30:09.977Z,1015.55
2017-06-23T11:31:24.116Z,1015.46
2017-06-23T11:32:25.988Z,1015.41
2017-06-23T11:33:27.863Z,1015.47
2017-06-23T11:34:29.758Z,1015.51
2017-06-23T11:35:31.590Z,1015.49
2017-06-23T11:36:33.403Z,1015.46
2017-06-23T11:37:35.304Z,1015.33
2017-06-23T11:38:37.181Z,1015.13
2017-06-23T11:39:39.058Z,1015.15
2017-06-23T11:40:53.218Z,1015.23
2017-06-23T11:41:55.095Z,1015.19
2017-06-23T11:42:56.987Z,1015.39
2017-06-23T11:43:58.863Z,1015.59
2017-06-23T11:45:00.672Z,1015.68
2017-06-23T11:46:02.495Z,1015.64
2017-06-23T11:47:04.359Z,1015.53
2017-06-23T11:48:06.252Z,1015.69
2017-06-23T11:49:08.129Z,1015.63
2017-06-23T11:50:22.275Z,1015.73
2017-06-23T11:51:24.163Z,1015.67
2017-06-23T11:52:26.035Z,1015.73
2017-06-23T11:53:27.910Z,1015.63
2017-06-23T11:54:29.744Z,1015.57
2017-06-23T11:55:31.637Z,1015.67
2017-06-23T11:56:33.528Z,1015.60
2017-06-23T11:57:35.405Z,1015.57
2017-06-23T11:58:37.275Z,1015.53
2017-06-23T11:59:51.548Z,1015.69
2017-06-23T12:00:53.470Z,1015.59
2017-06-23T12:01:55.359Z,1015.49
2017-06-23T12:02:57.237Z,1015.52
2017-06-23T12:03:59.049Z,1015.61
2017-06-23T12:05:00.874Z,1015.45
2017-06-23T12:06:02.749Z,1015.30
2017-06-23T12:07:04.627Z,1015.35
2017-06-23T12:08:06.522Z,1015.40
2017-06-23T12:09:20.660Z,1015.33
2017-06-23T12:10:22.533Z,1015.20
2017-06-23T12:11:24.406Z,1015.19
2017-06-23T12:12:26.302Z,1015.37
2017-06-23T12:13:28.133Z,1015.56
2017-06-23T12:14:29.945Z,1015.54
2017-06-23T12:15:31.852Z,1015.76
2017-06-23T12:16:33.717Z,1015.57
2017-06-23T12:17:35.608Z,1015.67
2017-06-23T12:18:49.754Z,1015.68
2017-06-23T12:19:51.621Z,1015.66
2017-06-23T12:20:53.493Z,1015.60
2017-06-23T12:21:55.368Z,1015.56
2017-06-23T12:22:57.177Z,1015.40
2017-06-23T12:23:59.004Z,1015.17
2017-06-23T12:25:00.885Z,1015.40
2017-06-23T12:26:02.785Z,1015.17
2017-06-23T12:27:04.651Z,1015.06
2017-06-23T12:28:18.803Z,1015.00
2017-06-23T12:29:20.692Z,1015.19
2017-06-23T12:30:22.573Z,1015.05
2017-06-23T12:31:24.464Z,1015.03
2017-06-23T12:32:26.277Z,1015.08
2017-06-23T12:33:28.111Z,1015.22
2017-06-23T12:34:29.999Z,1015.23
2017-06-23T12:35:31.880Z,1015.47
2017-06-23T12:36:33.775Z,1015.54
2017-06-23T12:37:47.941Z,1015.45
2017-06-23T12:38:49.833Z,1015.53
2017-06-23T12:39:51.717Z,1015.60
2017-06-23T12:40:53.605Z,1015.47
2017-06-23T12:41:55.417Z,1015.47
2017-06-23T12:42:57.225Z,1015.56
2017-06-23T12:43:59.093Z,1015.57